Airfield :
LOGIN :

Register | Disclaimer

   EN    FR    IT 

 










Legend :    VFR   Marginal VFR   IFR   Intensive IFR   Very Intensive IFR
Visi :
Ceiling :
>= 8 km
>= 3000ft
5 to 8 km
1000 to 3000 ft
1500m to 5 km
500 to 1000 ft
800 to 1500m
200 to 500 ft
< 800m
< 200 ft
Symbols :   Thunderstorms  Fog  Heavy snow  Heavy precipitations  Wind > 20 kt
SIGMETs :     Misc.  Thunderstorms  Icing  Turbulence  Mountain Waves  Volcanic Ashes







- Airport Elevation : 236 ft
- IATA code : MMX


ESMS - Malmö Sturup

CURRENT METAR :
  • 221220Z 31018KT 9999 SCT035 11/04 Q1024

EXPIRED METARs :
  • 221150Z 31022KT 9999 SCT035 11/03 Q1024
  • 221120Z 31019KT 9999 SCT034 11/03 Q1023
  • 221050Z 31020KT 9999 SCT032 11/04 Q1023
  • 221020Z 30018KT 9999 FEW030 SCT037 11/04 Q1023
  • 220950Z 31019KT 9999 FEW025 10/05 Q1023

TAF TAF ESMS
Valid from the 22 at 12:00 until the 23 at 12:00 UTC


221112Z 2212/2312 31018KT 9999 SCT030
TEMPO 2212/2216 30020G32KT
BECMG 2216/2218 25008KT
BECMG 2300/2302 26018KT RA
TEMPO 2302/2307 27022G35KT 4000 -RADZ BKN010
BECMG 2307/2310 29022G38KT NSW SCT020TCU
No reported NOTAMs for that airfield.



MET'MAP, your aeronautical weather chart ! - Copyright ORBIFLY December 2007 - Disclaimer

ORBIFLY MET'MAP TEAM :

Programming & Development : Alexandra Zaïnal
Concept & Development : Baudouin d'Aumeries
Co-Development & Prog : Marc-Olivier Méhu
Technical & hardware support : Manuel Goepfert

Contact : metmap@orbifly.com




SOURCES & CREDITS :

   NOAA